sensor_id;sensor_type;location;lat;lon;timestamp;pressure;altitude;pressure_sealevel;temperature;humidity
76108;BME280;64834;52.516;10.528;2023-12-20T00:00:37;100360.88;;;6.57;100.00
76108;BME280;64834;52.516;10.528;2023-12-20T00:03:03;100356.38;;;6.55;100.00
76108;BME280;64834;52.516;10.528;2023-12-20T00:05:29;100368.34;;;6.53;100.00
76108;BME280;64834;52.516;10.528;2023-12-20T00:07:54;100370.88;;;6.51;100.00
76108;BME280;64834;52.516;10.528;2023-12-20T00:10:19;100373.47;;;6.51;100.00
76108;BME280;64834;52.516;10.528;2023-12-20T00:12:45;100368.25;;;6.51;100.00
76108;BME280;64834;52.516;10.528;2023-12-20T00:15:10;100366.38;;;6.48;100.00
76108;BME280;64834;52.516;10.528;2023-12-20T00:17:36;100372.06;;;6.43;100.00
76108;BME280;64834;52.516;10.528;2023-12-20T00:20:01;100375.16;;;6.37;100.00
76108;BME280;64834;52.516;10.528;2023-12-20T00:22:26;100364.44;;;6.33;100.00
76108;BME280;64834;52.516;10.528;2023-12-20T00:24:51;100355.34;;;6.26;100.00
76108;BME280;64834;52.516;10.528;2023-12-20T00:27:17;100363.84;;;6.24;100.00
76108;BME280;64834;52.516;10.528;2023-12-20T00:29:42;100367.00;;;6.19;100.00
76108;BME280;64834;52.516;10.528;2023-12-20T00:32:12;100354.41;;;6.12;100.00
76108;BME280;64834;52.516;10.528;2023-12-20T00:34:38;100374.06;;;6.09;100.00
76108;BME280;64834;52.516;10.528;2023-12-20T00:37:03;100383.38;;;6.05;100.00
76108;BME280;64834;52.516;10.528;2023-12-20T00:39:28;100378.09;;;6.04;100.00
76108;BME280;64834;52.516;10.528;2023-12-20T00:41:54;100380.44;;;6.01;100.00
76108;BME280;64834;52.516;10.528;2023-12-20T00:44:19;100385.44;;;5.98;100.00
76108;BME280;64834;52.516;10.528;2023-12-20T00:46:44;100385.13;;;5.93;100.00
76108;BME280;64834;52.516;10.528;2023-12-20T00:49:10;100385.13;;;5.93;100.00
76108;BME280;64834;52.516;10.528;2023-12-20T00:51:35;100388.25;;;5.89;100.00
76108;BME280;64834;52.516;10.528;2023-12-20T00:54:00;100386.38;;;5.86;100.00
76108;BME280;64834;52.516;10.528;2023-12-20T00:56:25;100375.75;;;5.83;100.00
76108;BME280;64834;52.516;10.528;2023-12-20T00:58:51;100379.94;;;5.81;100.00
76108;BME280;64834;52.516;10.528;2023-12-20T01:01:16;100382.31;;;5.78;100.00
76108;BME280;64834;52.516;10.528;2023-12-20T01:03:42;100384.00;;;5.78;100.00
76108;BME280;64834;52.516;10.528;2023-12-20T01:06:07;100382.22;;;5.77;100.00
76108;BME280;64834;52.516;10.528;2023-12-20T01:08:32;100381.94;;;5.72;100.00
76108;BME280;64834;52.516;10.528;2023-12-20T01:11:00;100399.97;;;5.71;100.00
76108;BME280;64834;52.516;10.528;2023-12-20T01:13:25;100390.38;;;5.69;100.00
76108;BME280;64834;52.516;10.528;2023-12-20T01:15:50;100384.28;;;5.69;100.00
76108;BME280;64834;52.516;10.528;2023-12-20T01:18:16;100384.84;;;5.65;100.00
76108;BME280;64834;52.516;10.528;2023-12-20T01:20:41;100389.06;;;5.63;100.00
76108;BME280;64834;52.516;10.528;2023-12-20T01:23:06;100388.72;;;5.58;100.00
76108;BME280;64834;52.516;10.528;2023-12-20T01:25:32;100386.84;;;5.56;100.00
76108;BME280;64834;52.516;10.528;2023-12-20T01:27:57;100389.19;;;5.53;100.00
76108;BME280;64834;52.516;10.528;2023-12-20T01:30:22;100387.53;;;5.53;100.00
76108;BME280;64834;52.516;10.528;2023-12-20T01:32:47;100386.72;;;5.54;100.00
76108;BME280;64834;52.516;10.528;2023-12-20T01:35:13;100383.25;;;5.54;100.00
76108;BME280;64834;52.516;10.528;2023-12-20T01:37:38;100380.50;;;5.52;100.00
76108;BME280;64834;52.516;10.528;2023-12-20T01:40:04;100377.72;;;5.49;100.00
76108;BME280;64834;52.516;10.528;2023-12-20T01:42:29;100380.97;;;5.47;100.00
76108;BME280;64834;52.516;10.528;2023-12-20T01:44:55;100389.34;;;5.43;100.00
76108;BME280;64834;52.516;10.528;2023-12-20T01:47:20;100385.06;;;5.43;100.00
76108;BME280;64834;52.516;10.528;2023-12-20T01:49:46;100384.63;;;5.37;100.00
76108;BME280;64834;52.516;10.528;2023-12-20T01:52:12;100392.97;;;5.33;100.00
76108;BME280;64834;52.516;10.528;2023-12-20T01:54:38;100392.06;;;5.32;100.00
76108;BME280;64834;52.516;10.528;2023-12-20T01:57:06;100389.16;;;5.28;100.00
76108;BME280;64834;52.516;10.528;2023-12-20T01:59:32;100393.56;;;5.29;100.00
76108;BME280;64834;52.516;10.528;2023-12-20T02:01:58;100391.63;;;5.26;100.00
76108;BME280;64834;52.516;10.528;2023-12-20T02:04:24;100389.84;;;5.25;100.00
76108;BME280;64834;52.516;10.528;2023-12-20T02:06:52;100381.97;;;5.24;100.00
76108;BME280;64834;52.516;10.528;2023-12-20T02:09:18;100381.97;;;5.24;100.00
76108;BME280;64834;52.516;10.528;2023-12-20T02:11:43;100388.94;;;5.25;100.00
76108;BME280;64834;52.516;10.528;2023-12-20T02:14:09;100376.66;;;5.22;100.00
76108;BME280;64834;52.516;10.528;2023-12-20T02:16:34;100383.41;;;5.20;100.00
76108;BME280;64834;52.516;10.528;2023-12-20T02:18:59;100391.09;;;5.19;100.00
76108;BME280;64834;52.516;10.528;2023-12-20T02:21:31;100389.50;;;5.21;100.00
76108;BME280;64834;52.516;10.528;2023-12-20T02:23:56;100395.38;;;5.18;100.00
76108;BME280;64834;52.516;10.528;2023-12-20T02:26:22;100391.00;;;5.17;100.00
76108;BME280;64834;52.516;10.528;2023-12-20T02:28:47;100385.56;;;5.14;100.00
76108;BME280;64834;52.516;10.528;2023-12-20T02:31:12;100383.66;;;5.11;100.00
76108;BME280;64834;52.516;10.528;2023-12-20T02:33:38;100373.75;;;5.06;100.00
76108;BME280;64834;52.516;10.528;2023-12-20T02:36:06;100370.72;;;5.00;100.00
76108;BME280;64834;52.516;10.528;2023-12-20T02:38:31;100380.09;;;4.98;100.00
76108;BME280;64834;52.516;10.528;2023-12-20T02:40:56;100367.69;;;4.94;100.00
76108;BME280;64834;52.516;10.528;2023-12-20T02:43:22;100359.81;;;4.92;100.00
76108;BME280;64834;52.516;10.528;2023-12-20T02:45:47;100371.06;;;4.93;100.00
76108;BME280;64834;52.516;10.528;2023-12-20T02:48:12;100366.25;;;4.85;100.00
76108;BME280;64834;52.516;10.528;2023-12-20T02:50:38;100371.31;;;4.84;100.00
76108;BME280;64834;52.516;10.528;2023-12-20T02:53:03;100376.72;;;4.87;100.00
76108;BME280;64834;52.516;10.528;2023-12-20T02:55:28;100365.34;;;4.85;100.00
76108;BME280;64834;52.516;10.528;2023-12-20T02:57:54;100358.81;;;4.78;100.00
76108;BME280;64834;52.516;10.528;2023-12-20T03:00:19;100362.06;;;4.76;100.00
76108;BME280;64834;52.516;10.528;2023-12-20T03:02:44;100363.09;;;4.78;100.00
76108;BME280;64834;52.516;10.528;2023-12-20T03:05:10;100363.84;;;4.88;100.00
76108;BME280;64834;52.516;10.528;2023-12-20T03:07:36;100367.34;;;4.89;100.00
76108;BME280;64834;52.516;10.528;2023-12-20T03:10:02;100353.72;;;4.92;100.00
76108;BME280;64834;52.516;10.528;2023-12-20T03:12:28;100352.94;;;4.93;100.00
76108;BME280;64834;52.516;10.528;2023-12-20T03:14:53;100350.09;;;4.90;100.00
76108;BME280;64834;52.516;10.528;2023-12-20T03:17:18;100358.91;;;4.92;100.00
76108;BME280;64834;52.516;10.528;2023-12-20T03:19:44;100349.19;;;4.89;100.00
76108;BME280;64834;52.516;10.528;2023-12-20T03:22:10;100350.09;;;4.90;100.00
76108;BME280;64834;52.516;10.528;2023-12-20T03:24:35;100350.78;;;4.87;100.00
76108;BME280;64834;52.516;10.528;2023-12-20T03:27:00;100348.41;;;4.90;100.00
76108;BME280;64834;52.516;10.528;2023-12-20T03:29:26;100338.81;;;4.89;100.00
76108;BME280;64834;52.516;10.528;2023-12-20T03:31:51;100345.03;;;4.91;100.00
76108;BME280;64834;52.516;10.528;2023-12-20T03:34:16;100326.91;;;4.91;100.00
76108;BME280;64834;52.516;10.528;2023-12-20T03:36:42;100327.47;;;4.87;100.00
76108;BME280;64834;52.516;10.528;2023-12-20T03:39:07;100326.00;;;4.91;100.00
76108;BME280;64834;52.516;10.528;2023-12-20T03:41:33;100327.78;;;4.92;100.00
76108;BME280;64834;52.516;10.528;2023-12-20T03:43:58;100327.09;;;4.94;100.00
76108;BME280;64834;52.516;10.528;2023-12-20T03:46:23;100310.22;;;4.87;100.00
76108;BME280;64834;52.516;10.528;2023-12-20T03:48:49;100309.50;;;4.90;100.00
76108;BME280;64834;52.516;10.528;2023-12-20T03:51:14;100304.91;;;4.86;100.00
76108;BME280;64834;52.516;10.528;2023-12-20T03:53:39;100301.31;;;4.84;100.00
76108;BME280;64834;52.516;10.528;2023-12-20T03:56:06;100289.50;;;4.76;100.00
76108;BME280;64834;52.516;10.528;2023-12-20T03:58:31;100297.38;;;4.77;100.00
76108;BME280;64834;52.516;10.528;2023-12-20T04:00:56;100301.09;;;4.69;100.00
76108;BME280;64834;52.516;10.528;2023-12-20T04:03:22;100304.69;;;4.71;100.00
76108;BME280;64834;52.516;10.528;2023-12-20T04:05:47;100301.09;;;4.69;100.00
76108;BME280;64834;52.516;10.528;2023-12-20T04:08:12;100298.97;;;4.64;100.00
76108;BME280;64834;52.516;10.528;2023-12-20T04:10:38;100296.53;;;4.53;100.00
76108;BME280;64834;52.516;10.528;2023-12-20T04:13:04;100299.88;;;4.52;100.00
76108;BME280;64834;52.516;10.528;2023-12-20T04:15:29;100298.06;;;4.51;100.00
76108;BME280;64834;52.516;10.528;2023-12-20T04:17:54;100302.94;;;4.47;100.00
76108;BME280;64834;52.516;10.528;2023-12-20T04:20:20;100310.03;;;4.49;100.00
76108;BME280;64834;52.516;10.528;2023-12-20T04:22:45;100305.75;;;4.50;100.00
76108;BME280;64834;52.516;10.528;2023-12-20T04:25:10;100316.09;;;4.50;100.00
76108;BME280;64834;52.516;10.528;2023-12-20T04:27:36;100299.66;;;4.49;100.00
76108;BME280;64834;52.516;10.528;2023-12-20T04:30:01;100299.66;;;4.49;100.00
76108;BME280;64834;52.516;10.528;2023-12-20T04:32:27;100304.28;;;4.53;100.00
76108;BME280;64834;52.516;10.528;2023-12-20T04:34:52;100310.69;;;4.58;100.00
76108;BME280;64834;52.516;10.528;2023-12-20T04:37:17;100299.75;;;4.63;100.00
76108;BME280;64834;52.516;10.528;2023-12-20T04:39:43;100310.22;;;4.64;100.00
76108;BME280;64834;52.516;10.528;2023-12-20T04:42:08;100296.16;;;4.60;100.00
76108;BME280;64834;52.516;10.528;2023-12-20T04:44:33;100299.75;;;4.63;100.00
76108;BME280;64834;52.516;10.528;2023-12-20T04:46:59;100305.41;;;4.69;100.00
76108;BME280;64834;52.516;10.528;2023-12-20T04:49:25;100297.72;;;4.70;100.00
76108;BME280;64834;52.516;10.528;2023-12-20T04:51:50;100290.38;;;4.76;100.00
76108;BME280;64834;52.516;10.528;2023-12-20T04:54:15;100285.53;;;4.81;100.00
76108;BME280;64834;52.516;10.528;2023-12-20T04:56:41;100287.69;;;4.86;100.00
76108;BME280;64834;52.516;10.528;2023-12-20T04:59:06;100287.22;;;4.92;100.00
76108;BME280;64834;52.516;10.528;2023-12-20T05:01:32;100284.63;;;4.92;100.00
76108;BME280;64834;52.516;10.528;2023-12-20T05:03:57;100285.63;;;4.94;100.00
76108;BME280;64834;52.516;10.528;2023-12-20T05:06:22;100278.75;;;4.95;100.00
76108;BME280;64834;52.516;10.528;2023-12-20T05:08:47;100289.09;;;4.95;100.00
76108;BME280;64834;52.516;10.528;2023-12-20T05:11:13;100277.38;;;5.00;100.00
76108;BME280;64834;52.516;10.528;2023-12-20T05:13:40;100283.78;;;5.05;100.00
76108;BME280;64834;52.516;10.528;2023-12-20T05:16:05;100281.09;;;5.03;100.00
76108;BME280;64834;52.516;10.528;2023-12-20T05:18:31;100278.81;;;5.08;100.00
76108;BME280;64834;52.516;10.528;2023-12-20T05:20:56;100282.19;;;5.07;100.00
76108;BME280;64834;52.516;10.528;2023-12-20T05:23:21;100273.94;;;5.12;100.00
76108;BME280;64834;52.516;10.528;2023-12-20T05:25:47;100273.16;;;5.13;100.00
76108;BME280;64834;52.516;10.528;2023-12-20T05:28:12;100265.47;;;5.15;100.00
76108;BME280;64834;52.516;10.528;2023-12-20T05:30:37;100268.88;;;5.14;100.00
76108;BME280;64834;52.516;10.528;2023-12-20T05:33:03;100259.28;;;5.13;100.00
76108;BME280;64834;52.516;10.528;2023-12-20T05:35:28;100259.63;;;5.18;100.00
76108;BME280;64834;52.516;10.528;2023-12-20T05:37:54;100264.09;;;5.20;100.00
76108;BME280;64834;52.516;10.528;2023-12-20T05:40:19;100269.53;;;5.23;100.00
76108;BME280;64834;52.516;10.528;2023-12-20T05:42:44;100265.34;;;5.25;100.00
76108;BME280;64834;52.516;10.528;2023-12-20T05:45:10;100261.84;;;5.25;100.00
76108;BME280;64834;52.516;10.528;2023-12-20T05:47:36;100274.00;;;5.26;100.00
76108;BME280;64834;52.516;10.528;2023-12-20T05:50:01;100256.66;;;5.25;100.00
76108;BME280;64834;52.516;10.528;2023-12-20T05:52:26;100254.16;;;5.26;100.00
76108;BME280;64834;52.516;10.528;2023-12-20T05:54:51;100244.59;;;5.25;100.00
76108;BME280;64834;52.516;10.528;2023-12-20T05:57:17;100244.00;;;5.29;100.00
76108;BME280;64834;52.516;10.528;2023-12-20T05:59:42;100257.06;;;5.31;100.00
76108;BME280;64834;52.516;10.528;2023-12-20T06:02:08;100241.28;;;5.28;100.00
76108;BME280;64834;52.516;10.528;2023-12-20T06:04:33;100246.59;;;5.29;100.00
76108;BME280;64834;52.516;10.528;2023-12-20T06:06:58;100250.09;;;5.30;100.00
76108;BME280;64834;52.516;10.528;2023-12-20T06:09:24;100259.66;;;5.31;100.00
76108;BME280;64834;52.516;10.528;2023-12-20T06:11:50;100257.28;;;5.34;100.00
76108;BME280;64834;52.516;10.528;2023-12-20T06:14:16;100248.41;;;5.30;100.00
76108;BME280;64834;52.516;10.528;2023-12-20T06:16:41;100258.41;;;5.37;100.00
76108;BME280;64834;52.516;10.528;2023-12-20T06:19:06;100259.41;;;5.39;100.00
76108;BME280;64834;52.516;10.528;2023-12-20T06:21:32;100244.06;;;5.43;100.00
76108;BME280;64834;52.516;10.528;2023-12-20T06:23:59;100245.75;;;5.42;100.00
76108;BME280;64834;52.516;10.528;2023-12-20T06:26:24;100253.53;;;5.42;100.00
76108;BME280;64834;52.516;10.528;2023-12-20T06:28:49;100254.34;;;5.41;100.00
76108;BME280;64834;52.516;10.528;2023-12-20T06:31:15;100254.53;;;5.44;100.00
76108;BME280;64834;52.516;10.528;2023-12-20T06:33:40;100241.66;;;5.46;100.00
76108;BME280;64834;52.516;10.528;2023-12-20T06:36:11;100244.56;;;5.50;100.00
76108;BME280;64834;52.516;10.528;2023-12-20T06:38:37;100248.38;;;5.55;100.00
76108;BME280;64834;52.516;10.528;2023-12-20T06:41:03;100264.84;;;5.56;100.00
76108;BME280;64834;52.516;10.528;2023-12-20T06:43:28;100252.44;;;5.52;100.00
76108;BME280;64834;52.516;10.528;2023-12-20T06:45:54;100250.09;;;5.55;100.00
76108;BME280;64834;52.516;10.528;2023-12-20T06:48:19;100242.38;;;5.56;100.00
76108;BME280;64834;52.516;10.528;2023-12-20T06:50:45;100231.13;;;5.56;100.00
76108;BME280;64834;52.516;10.528;2023-12-20T06:53:11;100242.38;;;5.56;100.00
76108;BME280;64834;52.516;10.528;2023-12-20T06:55:38;100220.81;;;5.57;100.00
76108;BME280;64834;52.516;10.528;2023-12-20T06:58:03;100226.13;;;5.59;100.00
76108;BME280;64834;52.516;10.528;2023-12-20T07:00:29;100222.53;;;5.57;100.00
76108;BME280;64834;52.516;10.528;2023-12-20T07:02:54;100229.41;;;5.56;100.00
76108;BME280;64834;52.516;10.528;2023-12-20T07:05:20;100223.50;;;5.59;100.00
76108;BME280;64834;52.516;10.528;2023-12-20T07:07:46;100227.13;;;5.61;100.00
76108;BME280;64834;52.516;10.528;2023-12-20T07:10:12;100221.06;;;5.60;100.00
76108;BME280;64834;52.516;10.528;2023-12-20T07:12:37;100225.44;;;5.61;100.00
76108;BME280;64834;52.516;10.528;2023-12-20T07:15:03;100228.03;;;5.61;100.00
76108;BME280;64834;52.516;10.528;2023-12-20T07:17:28;100228.03;;;5.61;100.00
76108;BME280;64834;52.516;10.528;2023-12-20T07:19:54;100228.72;;;5.59;100.00
76108;BME280;64834;52.516;10.528;2023-12-20T07:22:19;100217.44;;;5.58;100.00
76108;BME280;64834;52.516;10.528;2023-12-20T07:24:44;100214.84;;;5.58;100.00
76108;BME280;64834;52.516;10.528;2023-12-20T07:27:10;100217.44;;;5.58;100.00
76108;BME280;64834;52.516;10.528;2023-12-20T07:29:36;100220.16;;;5.60;100.00
76108;BME280;64834;52.516;10.528;2023-12-20T07:32:01;100223.75;;;5.62;100.00
76108;BME280;64834;52.516;10.528;2023-12-20T07:34:27;100223.75;;;5.62;100.00
76108;BME280;64834;52.516;10.528;2023-12-20T07:36:52;100223.94;;;5.65;100.00
76108;BME280;64834;52.516;10.528;2023-12-20T07:39:17;100218.47;;;5.60;100.00
76108;BME280;64834;52.516;10.528;2023-12-20T07:41:43;100207.84;;;5.57;100.00
76108;BME280;64834;52.516;10.528;2023-12-20T07:44:09;100220.03;;;5.58;100.00
76108;BME280;64834;52.516;10.528;2023-12-20T07:46:34;100216.63;;;5.59;100.00
76108;BME280;64834;52.516;10.528;2023-12-20T07:48:59;100208.66;;;5.56;100.00
76108;BME280;64834;52.516;10.528;2023-12-20T07:51:25;100211.34;;;5.58;100.00
76108;BME280;64834;52.516;10.528;2023-12-20T07:53:51;100203.38;;;5.55;100.00
76108;BME280;64834;52.516;10.528;2023-12-20T07:56:18;100201.19;;;5.61;100.00
76108;BME280;64834;52.516;10.528;2023-12-20T07:58:44;100212.47;;;5.61;100.00
76108;BME280;64834;52.516;10.528;2023-12-20T08:01:10;100219.84;;;5.55;100.00
76108;BME280;64834;52.516;10.528;2023-12-20T08:03:36;100215.72;;;5.59;100.00
76108;BME280;64834;52.516;10.528;2023-12-20T08:06:02;100205.34;;;5.59;100.00
76108;BME280;64834;52.516;10.528;2023-12-20T08:08:27;100213.94;;;5.58;100.00
76108;BME280;64834;52.516;10.528;2023-12-20T08:10:53;100212.94;;;5.56;100.00
76108;BME280;64834;52.516;10.528;2023-12-20T08:13:18;100208.06;;;5.60;100.00
76108;BME280;64834;52.516;10.528;2023-12-20T08:15:44;100200.28;;;5.60;100.00
76108;BME280;64834;52.516;10.528;2023-12-20T08:18:09;100203.06;;;5.63;100.00
76108;BME280;64834;52.516;10.528;2023-12-20T08:20:34;100211.06;;;5.66;100.00
76108;BME280;64834;52.516;10.528;2023-12-20T08:23:00;100203.47;;;5.69;100.00
76108;BME280;64834;52.516;10.528;2023-12-20T08:25:25;100198.19;;;5.68;100.00
76108;BME280;64834;52.516;10.528;2023-12-20T08:27:51;100211.50;;;5.73;100.00
76108;BME280;64834;52.516;10.528;2023-12-20T08:30:16;100212.56;;;5.76;100.00
76108;BME280;64834;52.516;10.528;2023-12-20T08:32:47;100204.13;;;5.79;100.00
76108;BME280;64834;52.516;10.528;2023-12-20T08:35:13;100210.88;;;5.77;100.00
76108;BME280;64834;52.516;10.528;2023-12-20T08:37:38;100204.22;;;5.80;100.00
76108;BME280;64834;52.516;10.528;2023-12-20T08:40:03;100204.22;;;5.80;100.00
76108;BME280;64834;52.516;10.528;2023-12-20T08:42:29;100186.84;;;5.79;100.00
76108;BME280;64834;52.516;10.528;2023-12-20T08:44:57;100190.41;;;5.81;100.00
76108;BME280;64834;52.516;10.528;2023-12-20T08:47:23;100195.53;;;5.80;100.00
76108;BME280;64834;52.516;10.528;2023-12-20T08:49:48;100188.81;;;5.83;100.00
76108;BME280;64834;52.516;10.528;2023-12-20T08:52:14;100178.56;;;5.85;100.00
76108;BME280;64834;52.516;10.528;2023-12-20T08:54:39;100179.03;;;5.79;100.00
76108;BME280;64834;52.516;10.528;2023-12-20T08:57:04;100169.44;;;5.78;100.00
76108;BME280;64834;52.516;10.528;2023-12-20T08:59:31;100172.56;;;5.86;100.00
76108;BME280;64834;52.516;10.528;2023-12-20T09:01:57;100164.63;;;5.84;100.00
76108;BME280;64834;52.516;10.528;2023-12-20T09:04:22;100173.63;;;5.89;100.00
76108;BME280;64834;52.516;10.528;2023-12-20T09:06:47;100174.53;;;5.90;100.00
76108;BME280;64834;52.516;10.528;2023-12-20T09:09:13;100172.09;;;5.91;100.00
76108;BME280;64834;52.516;10.528;2023-12-20T09:11:41;100173.81;;;5.91;100.00
76108;BME280;64834;52.516;10.528;2023-12-20T09:14:07;100157.41;;;5.92;100.00
76108;BME280;64834;52.516;10.528;2023-12-20T09:16:32;100166.91;;;5.91;100.00
76108;BME280;64834;52.516;10.528;2023-12-20T09:18:58;100134.69;;;5.89;100.00
76108;BME280;64834;52.516;10.528;2023-12-20T09:21:23;100152.59;;;5.85;100.00
76108;BME280;64834;52.516;10.528;2023-12-20T09:23:49;100162.44;;;5.90;100.00
76108;BME280;64834;52.516;10.528;2023-12-20T09:26:14;100156.50;;;5.91;100.00
76108;BME280;64834;52.516;10.528;2023-12-20T09:28:39;100156.50;;;5.91;100.00
76108;BME280;64834;52.516;10.528;2023-12-20T09:31:05;100148.72;;;5.91;100.00
76108;BME280;64834;52.516;10.528;2023-12-20T09:33:31;100148.19;;;5.97;100.00
76108;BME280;64834;52.516;10.528;2023-12-20T09:35:57;100149.00;;;5.96;100.00
76108;BME280;64834;52.516;10.528;2023-12-20T09:38:22;100137.72;;;5.95;100.00
76108;BME280;64834;52.516;10.528;2023-12-20T09:40:47;100138.44;;;5.93;100.00
76108;BME280;64834;52.516;10.528;2023-12-20T09:43:19;100145.06;;;5.89;100.00
76108;BME280;64834;52.516;10.528;2023-12-20T09:45:46;100137.81;;;5.97;100.00
76108;BME280;64834;52.516;10.528;2023-12-20T09:48:12;100131.63;;;5.95;100.00
76108;BME280;64834;52.516;10.528;2023-12-20T09:50:40;100141.22;;;5.96;100.00
76108;BME280;64834;52.516;10.528;2023-12-20T09:53:08;100143.13;;;5.99;100.00
76108;BME280;64834;52.516;10.528;2023-12-20T09:55:35;100133.53;;;5.98;100.00
76108;BME280;64834;52.516;10.528;2023-12-20T09:58:01;100135.50;;;6.02;100.00
76108;BME280;64834;52.516;10.528;2023-12-20T10:00:26;100141.59;;;6.02;100.00
76108;BME280;64834;52.516;10.528;2023-12-20T10:03:01;100124.44;;;6.04;100.00
76108;BME280;64834;52.516;10.528;2023-12-20T10:05:33;100124.31;;;6.03;100.00
76108;BME280;64834;52.516;10.528;2023-12-20T10:08:00;100109.03;;;6.07;100.00
76108;BME280;64834;52.516;10.528;2023-12-20T10:10:26;100110.84;;;6.08;100.00
76108;BME280;64834;52.516;10.528;2023-12-20T10:13:07;100105.94;;;6.13;100.00
76108;BME280;64834;52.516;10.528;2023-12-20T10:15:37;100093.75;;;6.12;100.00
76108;BME280;64834;52.516;10.528;2023-12-20T10:18:03;100096.53;;;6.15;100.00
76108;BME280;64834;52.516;10.528;2023-12-20T10:20:30;100092.16;;;6.14;100.00
76108;BME280;64834;52.516;10.528;2023-12-20T10:22:57;100102.03;;;6.19;100.00
76108;BME280;64834;52.516;10.528;2023-12-20T10:25:22;100075.97;;;6.18;100.00
76108;BME280;64834;52.516;10.528;2023-12-20T10:27:48;100081.53;;;6.24;100.00
76108;BME280;64834;52.516;10.528;2023-12-20T10:30:14;100079.03;;;6.26;100.00
76108;BME280;64834;52.516;10.528;2023-12-20T10:32:39;100061.56;;;6.23;100.00
76108;BME280;64834;52.516;10.528;2023-12-20T10:35:06;100059.06;;;6.25;100.00
76108;BME280;64834;52.516;10.528;2023-12-20T10:37:35;100057.94;;;6.21;100.00
76108;BME280;64834;52.516;10.528;2023-12-20T10:40:03;100050.28;;;6.22;100.00
76108;BME280;64834;52.516;10.528;2023-12-20T10:42:29;100037.16;;;6.21;100.00
76108;BME280;64834;52.516;10.528;2023-12-20T10:44:55;100042.19;;;6.18;100.00
76108;BME280;64834;52.516;10.528;2023-12-20T10:47:20;100036.78;;;6.15;100.00
76108;BME280;64834;52.516;10.528;2023-12-20T10:49:46;100037.00;;;6.18;100.00
76108;BME280;64834;52.516;10.528;2023-12-20T10:52:12;100042.09;;;6.16;100.00
76108;BME280;64834;52.516;10.528;2023-12-20T10:54:41;100043.47;;;6.25;100.00
76108;BME280;64834;52.516;10.528;2023-12-20T10:57:06;100032.47;;;6.29;100.00
76108;BME280;64834;52.516;10.528;2023-12-20T10:59:33;100025.03;;;6.35;100.00
76108;BME280;64834;52.516;10.528;2023-12-20T11:01:59;100026.84;;;6.36;100.00
76108;BME280;64834;52.516;10.528;2023-12-20T11:04:35;100027.75;;;6.36;100.00
76108;BME280;64834;52.516;10.528;2023-12-20T11:07:19;100007.56;;;6.32;100.00
76108;BME280;64834;52.516;10.528;2023-12-20T11:15:29;100011.69;;;6.29;100.00
76108;BME280;64834;52.516;10.528;2023-12-20T11:17:56;100011.13;;;6.34;100.00
76108;BME280;64834;52.516;10.528;2023-12-20T11:20:23;100003.91;;;6.43;100.00
76108;BME280;64834;52.516;10.528;2023-12-20T11:22:53;100012.16;;;6.51;100.00
76108;BME280;64834;52.516;10.528;2023-12-20T11:25:18;99996.78;;;6.54;100.00
76108;BME280;64834;52.516;10.528;2023-12-20T11:27:44;99984.41;;;6.50;100.00
76108;BME280;64834;52.516;10.528;2023-12-20T11:31:01;99975.88;;;6.53;100.00
76108;BME280;64834;52.516;10.528;2023-12-20T11:33:29;99993.44;;;6.57;100.00
76108;BME280;64834;52.516;10.528;2023-12-20T11:35:56;100001.41;;;6.60;100.00
76108;BME280;64834;52.516;10.528;2023-12-20T11:38:21;99998.81;;;6.60;100.00
76108;BME280;64834;52.516;10.528;2023-12-20T11:40:50;99991.59;;;6.54;100.00
76108;BME280;64834;52.516;10.528;2023-12-20T11:46:03;99990.91;;;6.29;100.00
76108;BME280;64834;52.516;10.528;2023-12-20T11:48:30;99998.50;;;6.26;100.00
76108;BME280;64834;52.516;10.528;2023-12-20T11:50:56;99994.63;;;6.19;100.00
76108;BME280;64834;52.516;10.528;2023-12-20T11:53:21;99994.34;;;6.14;100.00
76108;BME280;64834;52.516;10.528;2023-12-20T11:55:49;100010.94;;;6.03;100.00
76108;BME280;64834;52.516;10.528;2023-12-20T11:58:15;100067.50;;;5.81;100.00
76108;BME280;64834;52.516;10.528;2023-12-20T12:00:42;100088.22;;;3.66;100.00
76108;BME280;64834;52.516;10.528;2023-12-20T12:03:09;100069.22;;;3.66;100.00
76108;BME280;64834;52.516;10.528;2023-12-20T12:05:34;100063.00;;;3.75;100.00
76108;BME280;64834;52.516;10.528;2023-12-20T12:08:00;100058.25;;;3.82;100.00
76108;BME280;64834;52.516;10.528;2023-12-20T12:10:26;100028.25;;;3.84;100.00
76108;BME280;64834;52.516;10.528;2023-12-20T12:12:51;100038.22;;;3.91;100.00
76108;BME280;64834;52.516;10.528;2023-12-20T12:15:16;100019.50;;;3.95;100.00
76108;BME280;64834;52.516;10.528;2023-12-20T12:17:42;100029.50;;;4.02;100.00
76108;BME280;64834;52.516;10.528;2023-12-20T12:20:07;100030.63;;;4.05;100.00
76108;BME280;64834;52.516;10.528;2023-12-20T12:22:34;100014.06;;;4.15;100.00
76108;BME280;64834;52.516;10.528;2023-12-20T12:25:09;100015.25;;;4.20;100.00
76108;BME280;64834;52.516;10.528;2023-12-20T12:27:36;100003.91;;;4.18;100.00
76108;BME280;64834;52.516;10.528;2023-12-20T12:30:04;99991.38;;;4.24;100.00
76108;BME280;64834;52.516;10.528;2023-12-20T12:32:32;99997.56;;;4.26;100.00
76108;BME280;64834;52.516;10.528;2023-12-20T12:34:57;99992.50;;;4.28;100.00
76108;BME280;64834;52.516;10.528;2023-12-20T12:37:22;100000.69;;;4.34;100.00
76108;BME280;64834;52.516;10.528;2023-12-20T12:39:49;99999.00;;;4.35;100.00
76108;BME280;64834;52.516;10.528;2023-12-20T12:42:14;100006.16;;;4.39;100.00